sensor_id;sensor_type;location;lat;lon;timestamp;P1;durP1;ratioP1;P2;durP2;ratioP2
54705;SDS011;40603;48.774;8.916;2024-01-10T00:00:30;28.45;;;11.77;;
54705;SDS011;40603;48.774;8.916;2024-01-10T00:02:55;29.73;;;13.20;;
54705;SDS011;40603;48.774;8.916;2024-01-10T00:05:21;33.50;;;13.55;;
54705;SDS011;40603;48.774;8.916;2024-01-10T00:07:46;36.58;;;14.82;;
54705;SDS011;40603;48.774;8.916;2024-01-10T00:10:11;34.40;;;14.30;;
54705;SDS011;40603;48.774;8.916;2024-01-10T00:12:36;32.30;;;13.88;;
54705;SDS011;40603;48.774;8.916;2024-01-10T00:15:05;39.60;;;12.88;;
54705;SDS011;40603;48.774;8.916;2024-01-10T00:17:31;35.42;;;12.68;;
54705;SDS011;40603;48.774;8.916;2024-01-10T00:19:56;28.17;;;11.90;;
54705;SDS011;40603;48.774;8.916;2024-01-10T00:22:21;32.33;;;14.45;;
54705;SDS011;40603;48.774;8.916;2024-01-10T00:24:47;37.97;;;13.88;;
54705;SDS011;40603;48.774;8.916;2024-01-10T00:27:12;31.23;;;13.63;;
54705;SDS011;40603;48.774;8.916;2024-01-10T00:29:37;33.72;;;13.68;;
54705;SDS011;40603;48.774;8.916;2024-01-10T00:32:03;30.42;;;13.48;;
54705;SDS011;40603;48.774;8.916;2024-01-10T00:34:29;31.27;;;13.82;;
54705;SDS011;40603;48.774;8.916;2024-01-10T00:36:54;30.27;;;13.45;;
54705;SDS011;40603;48.774;8.916;2024-01-10T00:39:19;39.25;;;13.60;;
54705;SDS011;40603;48.774;8.916;2024-01-10T00:41:45;31.50;;;13.90;;
54705;SDS011;40603;48.774;8.916;2024-01-10T00:44:10;34.88;;;13.45;;
54705;SDS011;40603;48.774;8.916;2024-01-10T00:46:35;33.05;;;13.93;;
54705;SDS011;40603;48.774;8.916;2024-01-10T00:49:01;33.22;;;13.85;;
54705;SDS011;40603;48.774;8.916;2024-01-10T00:51:26;29.35;;;12.65;;
54705;SDS011;40603;48.774;8.916;2024-01-10T00:53:51;37.20;;;13.52;;
54705;SDS011;40603;48.774;8.916;2024-01-10T00:56:17;31.98;;;12.65;;
54705;SDS011;40603;48.774;8.916;2024-01-10T00:58:42;28.95;;;12.60;;
54705;SDS011;40603;48.774;8.916;2024-01-10T01:01:07;28.63;;;13.02;;
54705;SDS011;40603;48.774;8.916;2024-01-10T01:03:32;30.45;;;12.38;;
54705;SDS011;40603;48.774;8.916;2024-01-10T01:05:58;32.65;;;12.77;;
54705;SDS011;40603;48.774;8.916;2024-01-10T01:08:23;26.77;;;11.45;;
54705;SDS011;40603;48.774;8.916;2024-01-10T01:10:48;29.95;;;12.48;;
54705;SDS011;40603;48.774;8.916;2024-01-10T01:13:14;29.15;;;12.40;;
54705;SDS011;40603;48.774;8.916;2024-01-10T01:15:39;28.75;;;12.48;;
54705;SDS011;40603;48.774;8.916;2024-01-10T01:18:04;29.77;;;12.25;;
54705;SDS011;40603;48.774;8.916;2024-01-10T01:20:30;30.38;;;11.35;;
54705;SDS011;40603;48.774;8.916;2024-01-10T01:22:56;27.52;;;12.00;;
54705;SDS011;40603;48.774;8.916;2024-01-10T01:25:21;27.42;;;11.90;;
54705;SDS011;40603;48.774;8.916;2024-01-10T01:27:46;31.35;;;12.35;;
54705;SDS011;40603;48.774;8.916;2024-01-10T01:30:12;30.27;;;11.77;;
54705;SDS011;40603;48.774;8.916;2024-01-10T01:32:37;27.60;;;11.77;;
54705;SDS011;40603;48.774;8.916;2024-01-10T01:35:03;24.27;;;11.40;;
54705;SDS011;40603;48.774;8.916;2024-01-10T01:37:29;26.95;;;11.50;;
54705;SDS011;40603;48.774;8.916;2024-01-10T01:39:54;27.08;;;11.95;;
54705;SDS011;40603;48.774;8.916;2024-01-10T01:42:19;31.48;;;12.50;;
54705;SDS011;40603;48.774;8.916;2024-01-10T01:44:45;31.52;;;13.15;;
54705;SDS011;40603;48.774;8.916;2024-01-10T01:47:10;26.05;;;12.20;;
54705;SDS011;40603;48.774;8.916;2024-01-10T01:49:35;32.97;;;12.32;;
54705;SDS011;40603;48.774;8.916;2024-01-10T01:52:01;28.52;;;12.02;;
54705;SDS011;40603;48.774;8.916;2024-01-10T01:54:26;25.33;;;12.23;;
54705;SDS011;40603;48.774;8.916;2024-01-10T01:56:52;25.15;;;11.55;;
54705;SDS011;40603;48.774;8.916;2024-01-10T01:59:17;27.92;;;12.13;;
54705;SDS011;40603;48.774;8.916;2024-01-10T02:01:42;26.08;;;11.05;;
54705;SDS011;40603;48.774;8.916;2024-01-10T02:04:08;28.90;;;12.95;;
54705;SDS011;40603;48.774;8.916;2024-01-10T02:06:33;29.50;;;12.23;;
54705;SDS011;40603;48.774;8.916;2024-01-10T02:08:59;29.90;;;12.48;;
54705;SDS011;40603;48.774;8.916;2024-01-10T02:11:25;31.58;;;13.25;;
54705;SDS011;40603;48.774;8.916;2024-01-10T02:13:50;30.35;;;13.38;;
54705;SDS011;40603;48.774;8.916;2024-01-10T02:16:16;34.97;;;12.65;;
54705;SDS011;40603;48.774;8.916;2024-01-10T02:18:42;31.77;;;12.13;;
54705;SDS011;40603;48.774;8.916;2024-01-10T02:21:08;23.48;;;11.68;;
54705;SDS011;40603;48.774;8.916;2024-01-10T02:23:33;25.83;;;11.35;;
54705;SDS011;40603;48.774;8.916;2024-01-10T02:25:58;30.05;;;11.73;;
54705;SDS011;40603;48.774;8.916;2024-01-10T02:28:24;28.27;;;11.63;;
54705;SDS011;40603;48.774;8.916;2024-01-10T02:30:50;25.90;;;11.30;;
54705;SDS011;40603;48.774;8.916;2024-01-10T02:33:16;26.40;;;11.25;;
54705;SDS011;40603;48.774;8.916;2024-01-10T02:35:41;24.15;;;10.63;;
54705;SDS011;40603;48.774;8.916;2024-01-10T02:38:06;21.30;;;10.27;;
54705;SDS011;40603;48.774;8.916;2024-01-10T02:40:31;24.15;;;9.73;;
54705;SDS011;40603;48.774;8.916;2024-01-10T02:42:57;24.25;;;9.75;;
54705;SDS011;40603;48.774;8.916;2024-01-10T02:45:22;28.52;;;10.95;;
54705;SDS011;40603;48.774;8.916;2024-01-10T02:47:47;22.75;;;9.35;;
54705;SDS011;40603;48.774;8.916;2024-01-10T02:50:13;26.15;;;9.88;;
54705;SDS011;40603;48.774;8.916;2024-01-10T02:52:38;20.05;;;9.35;;
54705;SDS011;40603;48.774;8.916;2024-01-10T02:55:03;21.75;;;9.95;;
54705;SDS011;40603;48.774;8.916;2024-01-10T02:57:29;21.67;;;8.63;;
54705;SDS011;40603;48.774;8.916;2024-01-10T02:59:54;21.77;;;8.90;;
54705;SDS011;40603;48.774;8.916;2024-01-10T03:02:19;24.08;;;9.65;;
54705;SDS011;40603;48.774;8.916;2024-01-10T03:04:45;27.17;;;10.57;;
54705;SDS011;40603;48.774;8.916;2024-01-10T03:07:10;22.75;;;9.75;;
54705;SDS011;40603;48.774;8.916;2024-01-10T03:09:35;26.27;;;10.27;;
54705;SDS011;40603;48.774;8.916;2024-01-10T03:12:01;27.17;;;9.68;;
54705;SDS011;40603;48.774;8.916;2024-01-10T03:14:26;22.73;;;9.70;;
54705;SDS011;40603;48.774;8.916;2024-01-10T03:16:51;20.35;;;9.45;;
54705;SDS011;40603;48.774;8.916;2024-01-10T03:19:18;23.50;;;9.07;;
54705;SDS011;40603;48.774;8.916;2024-01-10T03:21:43;22.33;;;9.60;;
54705;SDS011;40603;48.774;8.916;2024-01-10T03:24:08;19.67;;;8.48;;
54705;SDS011;40603;48.774;8.916;2024-01-10T03:26:34;26.25;;;9.30;;
54705;SDS011;40603;48.774;8.916;2024-01-10T03:28:59;21.17;;;9.85;;
54705;SDS011;40603;48.774;8.916;2024-01-10T03:31:26;21.08;;;9.30;;
54705;SDS011;40603;48.774;8.916;2024-01-10T03:33:52;20.88;;;9.55;;
54705;SDS011;40603;48.774;8.916;2024-01-10T03:36:18;21.38;;;9.13;;
54705;SDS011;40603;48.774;8.916;2024-01-10T03:38:43;23.02;;;9.00;;
54705;SDS011;40603;48.774;8.916;2024-01-10T03:41:12;21.50;;;9.02;;
54705;SDS011;40603;48.774;8.916;2024-01-10T03:43:38;25.83;;;9.53;;
54705;SDS011;40603;48.774;8.916;2024-01-10T03:46:04;20.67;;;8.25;;
54705;SDS011;40603;48.774;8.916;2024-01-10T03:48:29;20.60;;;9.25;;
54705;SDS011;40603;48.774;8.916;2024-01-10T03:50:55;22.23;;;9.60;;
54705;SDS011;40603;48.774;8.916;2024-01-10T03:53:20;21.27;;;9.88;;
54705;SDS011;40603;48.774;8.916;2024-01-10T03:55:45;22.20;;;9.50;;
54705;SDS011;40603;48.774;8.916;2024-01-10T03:58:10;20.23;;;8.65;;
54705;SDS011;40603;48.774;8.916;2024-01-10T04:00:36;21.60;;;9.52;;
54705;SDS011;40603;48.774;8.916;2024-01-10T04:03:01;22.17;;;9.45;;
54705;SDS011;40603;48.774;8.916;2024-01-10T04:05:27;21.48;;;9.50;;
54705;SDS011;40603;48.774;8.916;2024-01-10T04:07:52;22.17;;;9.13;;
54705;SDS011;40603;48.774;8.916;2024-01-10T04:10:18;26.05;;;9.07;;
54705;SDS011;40603;48.774;8.916;2024-01-10T04:12:44;26.92;;;9.07;;
54705;SDS011;40603;48.774;8.916;2024-01-10T04:15:09;21.55;;;9.07;;
54705;SDS011;40603;48.774;8.916;2024-01-10T04:17:35;21.60;;;9.32;;
54705;SDS011;40603;48.774;8.916;2024-01-10T04:20:00;19.17;;;7.55;;
54705;SDS011;40603;48.774;8.916;2024-01-10T04:22:26;21.75;;;8.20;;
54705;SDS011;40603;48.774;8.916;2024-01-10T04:24:51;21.70;;;9.55;;
54705;SDS011;40603;48.774;8.916;2024-01-10T04:27:17;20.85;;;8.00;;
54705;SDS011;40603;48.774;8.916;2024-01-10T04:29:45;21.20;;;8.10;;
54705;SDS011;40603;48.774;8.916;2024-01-10T04:32:10;22.58;;;9.32;;
54705;SDS011;40603;48.774;8.916;2024-01-10T04:34:35;18.05;;;8.63;;
54705;SDS011;40603;48.774;8.916;2024-01-10T04:37:01;22.45;;;9.02;;
54705;SDS011;40603;48.774;8.916;2024-01-10T04:39:26;17.92;;;8.05;;
54705;SDS011;40603;48.774;8.916;2024-01-10T04:41:52;20.23;;;9.55;;
54705;SDS011;40603;48.774;8.916;2024-01-10T04:44:17;17.85;;;8.60;;
54705;SDS011;40603;48.774;8.916;2024-01-10T04:46:42;16.58;;;7.63;;
54705;SDS011;40603;48.774;8.916;2024-01-10T04:49:08;22.55;;;9.60;;
54705;SDS011;40603;48.774;8.916;2024-01-10T04:51:33;21.90;;;9.35;;
54705;SDS011;40603;48.774;8.916;2024-01-10T04:53:58;24.42;;;8.77;;
54705;SDS011;40603;48.774;8.916;2024-01-10T04:56:24;20.67;;;8.55;;
54705;SDS011;40603;48.774;8.916;2024-01-10T04:58:50;17.95;;;8.65;;
54705;SDS011;40603;48.774;8.916;2024-01-10T05:01:15;19.15;;;8.15;;
54705;SDS011;40603;48.774;8.916;2024-01-10T05:03:41;19.45;;;8.98;;
54705;SDS011;40603;48.774;8.916;2024-01-10T05:06:06;27.38;;;8.45;;
54705;SDS011;40603;48.774;8.916;2024-01-10T05:08:32;21.63;;;9.70;;
54705;SDS011;40603;48.774;8.916;2024-01-10T05:10:57;20.98;;;9.52;;
54705;SDS011;40603;48.774;8.916;2024-01-10T05:13:22;27.20;;;11.13;;
54705;SDS011;40603;48.774;8.916;2024-01-10T05:15:47;24.30;;;10.45;;
54705;SDS011;40603;48.774;8.916;2024-01-10T05:18:13;19.70;;;9.48;;
54705;SDS011;40603;48.774;8.916;2024-01-10T05:20:38;31.00;;;11.23;;
54705;SDS011;40603;48.774;8.916;2024-01-10T05:23:03;22.83;;;9.13;;
54705;SDS011;40603;48.774;8.916;2024-01-10T05:25:29;27.42;;;9.98;;
54705;SDS011;40603;48.774;8.916;2024-01-10T05:27:54;22.33;;;9.75;;
54705;SDS011;40603;48.774;8.916;2024-01-10T05:30:20;21.92;;;9.98;;
54705;SDS011;40603;48.774;8.916;2024-01-10T05:32:45;24.90;;;10.35;;
54705;SDS011;40603;48.774;8.916;2024-01-10T05:35:10;28.73;;;10.20;;
54705;SDS011;40603;48.774;8.916;2024-01-10T05:37:36;23.10;;;9.98;;
54705;SDS011;40603;48.774;8.916;2024-01-10T05:40:01;26.85;;;10.35;;
54705;SDS011;40603;48.774;8.916;2024-01-10T05:42:28;22.83;;;9.15;;
54705;SDS011;40603;48.774;8.916;2024-01-10T05:44:53;22.90;;;10.40;;
54705;SDS011;40603;48.774;8.916;2024-01-10T05:47:19;22.95;;;8.55;;
54705;SDS011;40603;48.774;8.916;2024-01-10T05:49:44;20.77;;;9.35;;
54705;SDS011;40603;48.774;8.916;2024-01-10T05:52:09;21.67;;;8.95;;
54705;SDS011;40603;48.774;8.916;2024-01-10T05:54:35;30.20;;;10.48;;
54705;SDS011;40603;48.774;8.916;2024-01-10T05:57:00;24.08;;;9.73;;
54705;SDS011;40603;48.774;8.916;2024-01-10T05:59:26;25.13;;;9.05;;
54705;SDS011;40603;48.774;8.916;2024-01-10T06:01:51;26.05;;;9.93;;
54705;SDS011;40603;48.774;8.916;2024-01-10T06:04:16;18.67;;;9.05;;
54705;SDS011;40603;48.774;8.916;2024-01-10T06:06:42;22.27;;;9.40;;
54705;SDS011;40603;48.774;8.916;2024-01-10T06:09:07;21.83;;;9.20;;
54705;SDS011;40603;48.774;8.916;2024-01-10T06:11:39;26.45;;;9.70;;
54705;SDS011;40603;48.774;8.916;2024-01-10T06:14:05;23.80;;;9.10;;
54705;SDS011;40603;48.774;8.916;2024-01-10T06:16:31;21.35;;;8.85;;
54705;SDS011;40603;48.774;8.916;2024-01-10T06:18:56;24.38;;;10.43;;
54705;SDS011;40603;48.774;8.916;2024-01-10T06:21:21;38.60;;;14.65;;
54705;SDS011;40603;48.774;8.916;2024-01-10T06:23:46;44.75;;;16.20;;
54705;SDS011;40603;48.774;8.916;2024-01-10T06:26:12;42.00;;;16.48;;
54705;SDS011;40603;48.774;8.916;2024-01-10T06:28:37;27.92;;;12.15;;
54705;SDS011;40603;48.774;8.916;2024-01-10T06:31:04;26.00;;;11.40;;
54705;SDS011;40603;48.774;8.916;2024-01-10T06:33:29;29.33;;;10.60;;
54705;SDS011;40603;48.774;8.916;2024-01-10T06:35:54;29.80;;;10.65;;
54705;SDS011;40603;48.774;8.916;2024-01-10T06:38:20;26.33;;;10.98;;
54705;SDS011;40603;48.774;8.916;2024-01-10T06:40:47;30.75;;;11.88;;
54705;SDS011;40603;48.774;8.916;2024-01-10T06:43:12;27.65;;;11.75;;
54705;SDS011;40603;48.774;8.916;2024-01-10T06:45:38;32.65;;;12.40;;
54705;SDS011;40603;48.774;8.916;2024-01-10T06:48:05;30.77;;;11.73;;
54705;SDS011;40603;48.774;8.916;2024-01-10T06:50:31;26.05;;;10.27;;
54705;SDS011;40603;48.774;8.916;2024-01-10T06:52:56;31.75;;;10.65;;
54705;SDS011;40603;48.774;8.916;2024-01-10T06:55:21;23.85;;;10.32;;
54705;SDS011;40603;48.774;8.916;2024-01-10T06:57:49;27.38;;;10.63;;
54705;SDS011;40603;48.774;8.916;2024-01-10T07:00:16;19.92;;;9.38;;
54705;SDS011;40603;48.774;8.916;2024-01-10T07:02:42;31.90;;;10.57;;
54705;SDS011;40603;48.774;8.916;2024-01-10T07:05:08;26.92;;;10.85;;
54705;SDS011;40603;48.774;8.916;2024-01-10T07:07:34;22.60;;;9.45;;
54705;SDS011;40603;48.774;8.916;2024-01-10T07:10:02;24.63;;;10.75;;
54705;SDS011;40603;48.774;8.916;2024-01-10T07:12:31;23.25;;;9.45;;
54705;SDS011;40603;48.774;8.916;2024-01-10T07:14:57;24.48;;;10.55;;
54705;SDS011;40603;48.774;8.916;2024-01-10T07:17:23;31.77;;;10.63;;
54705;SDS011;40603;48.774;8.916;2024-01-10T07:19:48;30.85;;;11.32;;
54705;SDS011;40603;48.774;8.916;2024-01-10T07:22:14;24.80;;;10.80;;
54705;SDS011;40603;48.774;8.916;2024-01-10T07:24:39;20.55;;;9.48;;
54705;SDS011;40603;48.774;8.916;2024-01-10T07:27:04;28.33;;;10.93;;
54705;SDS011;40603;48.774;8.916;2024-01-10T07:29:31;24.40;;;10.43;;
54705;SDS011;40603;48.774;8.916;2024-01-10T07:31:56;25.45;;;10.48;;
54705;SDS011;40603;48.774;8.916;2024-01-10T07:34:22;25.83;;;10.57;;
54705;SDS011;40603;48.774;8.916;2024-01-10T07:36:47;25.58;;;11.55;;
54705;SDS011;40603;48.774;8.916;2024-01-10T07:39:12;23.55;;;10.63;;
54705;SDS011;40603;48.774;8.916;2024-01-10T07:41:41;23.83;;;10.88;;
54705;SDS011;40603;48.774;8.916;2024-01-10T07:44:06;27.20;;;10.55;;
54705;SDS011;40603;48.774;8.916;2024-01-10T07:46:32;24.83;;;9.98;;
54705;SDS011;40603;48.774;8.916;2024-01-10T07:48:59;24.98;;;11.13;;
54705;SDS011;40603;48.774;8.916;2024-01-10T07:51:25;24.20;;;10.48;;
54705;SDS011;40603;48.774;8.916;2024-01-10T07:53:50;25.23;;;10.95;;
54705;SDS011;40603;48.774;8.916;2024-01-10T07:56:16;22.15;;;10.90;;
54705;SDS011;40603;48.774;8.916;2024-01-10T07:58:41;23.83;;;11.75;;
54705;SDS011;40603;48.774;8.916;2024-01-10T08:01:06;21.50;;;10.10;;
54705;SDS011;40603;48.774;8.916;2024-01-10T08:03:31;27.00;;;11.27;;
54705;SDS011;40603;48.774;8.916;2024-01-10T08:05:58;24.98;;;11.70;;
54705;SDS011;40603;48.774;8.916;2024-01-10T08:08:24;28.15;;;11.93;;
54705;SDS011;40603;48.774;8.916;2024-01-10T08:10:49;28.95;;;11.23;;
54705;SDS011;40603;48.774;8.916;2024-01-10T08:13:14;25.63;;;11.43;;
54705;SDS011;40603;48.774;8.916;2024-01-10T08:15:39;31.58;;;12.27;;
54705;SDS011;40603;48.774;8.916;2024-01-10T08:18:06;29.83;;;11.77;;
54705;SDS011;40603;48.774;8.916;2024-01-10T08:20:32;27.55;;;11.68;;
54705;SDS011;40603;48.774;8.916;2024-01-10T08:22:57;27.13;;;11.70;;
54705;SDS011;40603;48.774;8.916;2024-01-10T08:25:23;29.20;;;12.77;;
54705;SDS011;40603;48.774;8.916;2024-01-10T08:27:48;31.23;;;12.38;;
54705;SDS011;40603;48.774;8.916;2024-01-10T08:30:14;32.60;;;12.43;;
54705;SDS011;40603;48.774;8.916;2024-01-10T08:32:39;29.80;;;12.88;;
54705;SDS011;40603;48.774;8.916;2024-01-10T08:35:05;31.38;;;13.23;;
54705;SDS011;40603;48.774;8.916;2024-01-10T08:37:32;29.38;;;12.38;;
54705;SDS011;40603;48.774;8.916;2024-01-10T08:39:58;30.98;;;13.23;;
54705;SDS011;40603;48.774;8.916;2024-01-10T08:42:24;30.70;;;12.18;;
54705;SDS011;40603;48.774;8.916;2024-01-10T08:44:49;32.67;;;12.63;;
54705;SDS011;40603;48.774;8.916;2024-01-10T08:47:15;30.88;;;12.32;;
54705;SDS011;40603;48.774;8.916;2024-01-10T08:49:40;34.30;;;12.93;;
54705;SDS011;40603;48.774;8.916;2024-01-10T08:52:05;33.80;;;13.68;;
54705;SDS011;40603;48.774;8.916;2024-01-10T08:54:31;22.63;;;10.77;;
54705;SDS011;40603;48.774;8.916;2024-01-10T08:56:56;26.92;;;12.40;;
54705;SDS011;40603;48.774;8.916;2024-01-10T08:59:21;27.35;;;11.52;;
54705;SDS011;40603;48.774;8.916;2024-01-10T09:01:47;29.67;;;12.82;;
54705;SDS011;40603;48.774;8.916;2024-01-10T09:04:12;28.73;;;12.75;;
54705;SDS011;40603;48.774;8.916;2024-01-10T09:06:37;28.85;;;12.23;;
54705;SDS011;40603;48.774;8.916;2024-01-10T09:09:03;27.88;;;12.80;;
54705;SDS011;40603;48.774;8.916;2024-01-10T09:11:28;31.13;;;13.05;;
54705;SDS011;40603;48.774;8.916;2024-01-10T09:13:53;32.20;;;14.10;;
54705;SDS011;40603;48.774;8.916;2024-01-10T09:16:19;31.42;;;12.75;;
54705;SDS011;40603;48.774;8.916;2024-01-10T09:18:44;35.72;;;13.07;;
54705;SDS011;40603;48.774;8.916;2024-01-10T09:21:09;31.13;;;13.20;;
54705;SDS011;40603;48.774;8.916;2024-01-10T09:23:35;30.70;;;12.98;;
54705;SDS011;40603;48.774;8.916;2024-01-10T09:26:00;29.73;;;13.40;;
54705;SDS011;40603;48.774;8.916;2024-01-10T09:28:25;28.27;;;13.15;;
54705;SDS011;40603;48.774;8.916;2024-01-10T09:30:51;30.65;;;13.02;;
54705;SDS011;40603;48.774;8.916;2024-01-10T09:33:16;35.78;;;13.93;;
54705;SDS011;40603;48.774;8.916;2024-01-10T09:35:42;30.67;;;13.68;;
54705;SDS011;40603;48.774;8.916;2024-01-10T09:38:07;27.25;;;13.15;;
54705;SDS011;40603;48.774;8.916;2024-01-10T09:40:32;30.33;;;13.20;;
54705;SDS011;40603;48.774;8.916;2024-01-10T09:42:58;30.35;;;13.50;;
54705;SDS011;40603;48.774;8.916;2024-01-10T09:45:23;28.73;;;13.65;;
54705;SDS011;40603;48.774;8.916;2024-01-10T09:47:54;32.72;;;14.27;;
54705;SDS011;40603;48.774;8.916;2024-01-10T09:50:23;31.13;;;13.68;;
54705;SDS011;40603;48.774;8.916;2024-01-10T09:52:51;33.65;;;13.57;;
54705;SDS011;40603;48.774;8.916;2024-01-10T09:55:19;28.33;;;13.45;;
54705;SDS011;40603;48.774;8.916;2024-01-10T09:57:46;30.77;;;14.38;;
54705;SDS011;40603;48.774;8.916;2024-01-10T10:00:11;29.55;;;14.32;;
54705;SDS011;40603;48.774;8.916;2024-01-10T10:02:38;33.63;;;14.05;;
54705;SDS011;40603;48.774;8.916;2024-01-10T10:05:08;31.13;;;13.73;;
54705;SDS011;40603;48.774;8.916;2024-01-10T10:07:48;32.15;;;15.38;;
54705;SDS011;40603;48.774;8.916;2024-01-10T10:10:16;33.60;;;13.82;;
54705;SDS011;40603;48.774;8.916;2024-01-10T10:12:42;37.30;;;13.52;;
54705;SDS011;40603;48.774;8.916;2024-01-10T10:15:12;30.77;;;14.23;;
54705;SDS011;40603;48.774;8.916;2024-01-10T10:17:39;31.48;;;14.05;;
54705;SDS011;40603;48.774;8.916;2024-01-10T10:20:11;28.42;;;13.38;;
54705;SDS011;40603;48.774;8.916;2024-01-10T10:22:38;35.50;;;15.27;;
54705;SDS011;40603;48.774;8.916;2024-01-10T10:25:04;33.70;;;14.15;;
54705;SDS011;40603;48.774;8.916;2024-01-10T10:27:29;35.35;;;14.73;;
54705;SDS011;40603;48.774;8.916;2024-01-10T10:29:55;29.05;;;14.27;;
54705;SDS011;40603;48.774;8.916;2024-01-10T10:32:20;36.95;;;15.20;;
54705;SDS011;40603;48.774;8.916;2024-01-10T10:34:46;32.10;;;14.57;;
54705;SDS011;40603;48.774;8.916;2024-01-10T10:37:11;31.02;;;13.70;;
54705;SDS011;40603;48.774;8.916;2024-01-10T10:39:36;31.85;;;14.55;;
54705;SDS011;40603;48.774;8.916;2024-01-10T10:42:03;33.92;;;14.25;;
54705;SDS011;40603;48.774;8.916;2024-01-10T10:44:29;29.75;;;14.23;;
54705;SDS011;40603;48.774;8.916;2024-01-10T10:47:00;28.73;;;13.73;;
54705;SDS011;40603;48.774;8.916;2024-01-10T10:49:29;31.63;;;14.15;;
54705;SDS011;40603;48.774;8.916;2024-01-10T10:51:58;35.65;;;13.38;;
54705;SDS011;40603;48.774;8.916;2024-01-10T10:54:28;27.95;;;13.73;;
54705;SDS011;40603;48.774;8.916;2024-01-10T10:56:57;29.98;;;13.48;;
54705;SDS011;40603;48.774;8.916;2024-01-10T10:59:23;30.85;;;14.07;;
54705;SDS011;40603;48.774;8.916;2024-01-10T11:01:51;30.90;;;13.80;;
54705;SDS011;40603;48.774;8.916;2024-01-10T11:04:17;29.92;;;13.48;;
54705;SDS011;40603;48.774;8.916;2024-01-10T11:06:42;29.60;;;13.65;;
54705;SDS011;40603;48.774;8.916;2024-01-10T11:09:08;26.85;;;13.48;;
54705;SDS011;40603;48.774;8.916;2024-01-10T11:14:32;28.17;;;13.75;;
54705;SDS011;40603;48.774;8.916;2024-01-10T11:25:11;25.98;;;13.20;;
54705;SDS011;40603;48.774;8.916;2024-01-10T11:27:36;35.00;;;14.63;;
54705;SDS011;40603;48.774;8.916;2024-01-10T11:30:01;31.60;;;14.65;;
54705;SDS011;40603;48.774;8.916;2024-01-10T11:32:29;29.88;;;13.48;;
54705;SDS011;40603;48.774;8.916;2024-01-10T11:34:58;31.75;;;13.93;;
54705;SDS011;40603;48.774;8.916;2024-01-10T11:37:28;28.38;;;13.88;;
54705;SDS011;40603;48.774;8.916;2024-01-10T11:39:54;26.70;;;13.43;;
54705;SDS011;40603;48.774;8.916;2024-01-10T11:42:23;32.38;;;15.20;;
54705;SDS011;40603;48.774;8.916;2024-01-10T11:44:49;30.33;;;13.50;;
54705;SDS011;40603;48.774;8.916;2024-01-10T11:47:15;25.90;;;13.52;;
54705;SDS011;40603;48.774;8.916;2024-01-10T11:49:40;33.83;;;15.32;;
54705;SDS011;40603;48.774;8.916;2024-01-10T11:52:06;31.20;;;14.55;;
54705;SDS011;40603;48.774;8.916;2024-01-10T11:54:35;33.95;;;15.05;;
54705;SDS011;40603;48.774;8.916;2024-01-10T11:59:42;31.45;;;15.60;;
54705;SDS011;40603;48.774;8.916;2024-01-10T12:02:12;32.47;;;15.07;;
54705;SDS011;40603;48.774;8.916;2024-01-10T12:04:38;28.88;;;12.98;;
54705;SDS011;40603;48.774;8.916;2024-01-10T12:07:05;31.90;;;14.88;;
54705;SDS011;40603;48.774;8.916;2024-01-10T12:09:32;36.25;;;15.43;;
54705;SDS011;40603;48.774;8.916;2024-01-10T12:11:57;31.95;;;14.77;;
54705;SDS011;40603;48.774;8.916;2024-01-10T12:14:23;33.10;;;15.15;;
54705;SDS011;40603;48.774;8.916;2024-01-10T12:16:50;30.63;;;15.40;;
54705;SDS011;40603;48.774;8.916;2024-01-10T12:19:16;31.80;;;14.85;;
54705;SDS011;40603;48.774;8.916;2024-01-10T12:21:42;31.50;;;15.07;;
54705;SDS011;40603;48.774;8.916;2024-01-10T12:24:07;34.30;;;15.57;;
54705;SDS011;40603;48.774;8.916;2024-01-10T12:26:32;33.97;;;15.73;;
54705;SDS011;40603;48.774;8.916;2024-01-10T12:28:58;31.40;;;14.80;;
54705;SDS011;40603;48.774;8.916;2024-01-10T12:31:27;28.58;;;14.27;;
54705;SDS011;40603;48.774;8.916;2024-01-10T12:33:56;35.55;;;15.68;;
54705;SDS011;40603;48.774;8.916;2024-01-10T12:36:22;28.17;;;14.38;;
54705;SDS011;40603;48.774;8.916;2024-01-10T12:38:47;31.33;;;14.40;;
54705;SDS011;40603;48.774;8.916;2024-01-10T12:41:14;32.58;;;15.15;;
54705;SDS011;40603;48.774;8.916;2024-01-10T12:43:40;30.63;;;14.43;;
54705;SDS011;40603;48.774;8.916;2024-01-10T12:46:06;33.38;;;15.48;;
54705;SDS011;40603;48.774;8.916;2024-01-10T12:48:33;37.83;;;16.60;;
54705;SDS011;40603;48.774;8.916;2024-01-10T12:51:02;31.92;;;14.93;;
54705;SDS011;40603;48.774;8.916;2024-01-10T12:53:31;30.42;;;14.45;;
54705;SDS011;40603;48.774;8.916;2024-01-10T12:55:58;32.58;;;14.95;;
54705;SDS011;40603;48.774;8.916;2024-01-10T12:58:24;31.90;;;14.38;;
54705;SDS011;40603;48.774;8.916;2024-01-10T13:00:49;33.65;;;16.45;;
54705;SDS011;40603;48.774;8.916;2024-01-10T13:03:14;30.67;;;14.85;;
54705;SDS011;40603;48.774;8.916;2024-01-10T13:05:40;29.02;;;14.77;;
54705;SDS011;40603;48.774;8.916;2024-01-10T13:08:05;31.52;;;15.30;;
54705;SDS011;40603;48.774;8.916;2024-01-10T13:10:31;33.15;;;15.18;;
54705;SDS011;40603;48.774;8.916;2024-01-10T13:12:56;36.28;;;16.35;;
54705;SDS011;40603;48.774;8.916;2024-01-10T13:15:22;35.33;;;15.57;;
54705;SDS011;40603;48.774;8.916;2024-01-10T13:17:47;29.05;;;15.55;;
54705;SDS011;40603;48.774;8.916;2024-01-10T13:20:12;34.75;;;15.90;;
54705;SDS011;40603;48.774;8.916;2024-01-10T13:22:38;31.40;;;15.07;;
54705;SDS011;40603;48.774;8.916;2024-01-10T13:25:04;33.97;;;15.95;;
54705;SDS011;40603;48.774;8.916;2024-01-10T13:27:29;35.03;;;17.05;;
54705;SDS011;40603;48.774;8.916;2024-01-10T13:29:55;36.25;;;16.63;;
54705;SDS011;40603;48.774;8.916;2024-01-10T13:32:20;34.60;;;15.63;;
54705;SDS011;40603;48.774;8.916;2024-01-10T13:34:45;37.05;;;16.77;;
54705;SDS011;40603;48.774;8.916;2024-01-10T13:37:11;35.40;;;15.63;;
54705;SDS011;40603;48.774;8.916;2024-01-10T13:39:37;35.15;;;15.35;;
54705;SDS011;40603;48.774;8.916;2024-01-10T13:42:03;35.38;;;17.10;;
54705;SDS011;40603;48.774;8.916;2024-01-10T13:44:28;30.48;;;16.63;;
54705;SDS011;40603;48.774;8.916;2024-01-10T13:46:53;36.13;;;16.88;;
54705;SDS011;40603;48.774;8.916;2024-01-10T13:49:19;34.35;;;15.82;;
54705;SDS011;40603;48.774;8.916;2024-01-10T13:51:44;31.33;;;15.35;;
54705;SDS011;40603;48.774;8.916;2024-01-10T13:54:10;35.35;;;16.40;;
54705;SDS011;40603;48.774;8.916;2024-01-10T13:56:35;34.95;;;16.55;;
54705;SDS011;40603;48.774;8.916;2024-01-10T13:59:01;35.45;;;17.40;;
54705;SDS011;40603;48.774;8.916;2024-01-10T14:01:26;32.00;;;15.10;;
54705;SDS011;40603;48.774;8.916;2024-01-10T14:03:51;35.25;;;15.40;;
54705;SDS011;40603;48.774;8.916;2024-01-10T14:06:17;34.88;;;16.42;;
54705;SDS011;40603;48.774;8.916;2024-01-10T14:08:42;32.42;;;14.93;;
54705;SDS011;40603;48.774;8.916;2024-01-10T14:11:08;39.15;;;16.40;;
54705;SDS011;40603;48.774;8.916;2024-01-10T14:13:33;35.15;;;15.73;;
54705;SDS011;40603;48.774;8.916;2024-01-10T14:16:00;36.92;;;16.63;;
54705;SDS011;40603;48.774;8.916;2024-01-10T14:18:25;32.33;;;16.75;;
54705;SDS011;40603;48.774;8.916;2024-01-10T14:20:50;36.67;;;17.33;;
54705;SDS011;40603;48.774;8.916;2024-01-10T14:23:16;39.20;;;17.35;;
54705;SDS011;40603;48.774;8.916;2024-01-10T14:25:42;36.42;;;17.60;;
54705;SDS011;40603;48.774;8.916;2024-01-10T14:28:08;34.00;;;16.65;;